Skip to main content

NOAA/GLERL Met Station at Chicago, IL

Previous 3 Hours (2 minute increments)
See also Previous 5 Days (top of hour)
Jump down to Data
Switch to [English][Metric]
Zoom: Click and drag, Pan: shift-click and drag, Unzoom: double-click, Unzoom All




See also 1-day windrose plot


NOAA/GLERL Met Station at Chicago, IL

Previous 3 Hours (2 minute increments)
See also Previous 5 Days (top of hour only)
Jump up to Graphs
Switch to [English][Metric]
                  Wind  Wind  Wind   Air   Dew   Rel
                   Spd   Gst   Dir  Temp    Pt   Hum
YYYY-MM-DD   CDT   kts   kts   deg     F     F     %
2020-08-07 11:20   6.2   6.8   100  71.4  65.5  81.3
2020-08-07 11:18   7.0   7.8    99  71.6  65.3  80.2
2020-08-07 11:16   6.6   7.2   104  71.8  65.1  79.3
2020-08-07 11:14   5.8   7.2   105  72.0  65.4  79.5
2020-08-07 11:12   6.0   6.6   110  72.0  64.9  78.0
2020-08-07 11:10   5.8   7.0   108  72.1  65.5  79.4
2020-08-07 11:08   6.2   6.6   112  72.0  65.0  78.4
2020-08-07 11:06   6.0   6.4   106  71.8  65.0  78.8
2020-08-07 11:04   6.0   6.6   109  71.8  64.7  78.1
2020-08-07 11:02   6.0   7.0   106  71.8  64.9  78.7
2020-08-07 11:00   4.9   5.6   103  71.8  65.0  78.8
2020-08-07 10:58   5.2   5.8   106  71.8  64.6  77.8
2020-08-07 10:56   4.9   5.4   109  71.8  65.3  79.6
2020-08-07 10:54   4.9   5.6   104  71.6  64.9  79.2
2020-08-07 10:52   5.2   5.8   106  71.8  64.9  78.5
2020-08-07 10:50   5.2   6.8   112  71.6  65.1  79.6
2020-08-07 10:48   4.5   5.2   105  71.6  64.9  79.0
2020-08-07 10:46   4.9   6.0   104  71.4  65.1  80.1
2020-08-07 10:44   5.1   5.8   101  71.4  64.9  79.6
2020-08-07 10:42   4.7   5.6   102  71.6  65.0  79.3
2020-08-07 10:40   4.3   4.7   101  71.4  64.6  78.8
2020-08-07 10:38   5.1   5.8   105  71.4  64.6  78.7
2020-08-07 10:36   5.2   5.8   100  71.4  64.6  78.7
2020-08-07 10:34   4.9   5.4   106  71.8  64.4  77.1
2020-08-07 10:32   5.1   5.6   106  71.6  64.5  77.9
2020-08-07 10:30   4.1   5.1   101  71.4  64.8  79.2
2020-08-07 10:28   4.3   4.9   101  71.4  64.5  78.5
2020-08-07 10:26   3.9   4.3   101  71.2  64.4  78.8
2020-08-07 10:24   3.7   4.1    95  71.2  64.2  78.1
2020-08-07 10:22   4.1   4.9   102  71.4  64.2  77.7
2020-08-07 10:20   4.3   4.9   103  71.2  64.1  77.8
2020-08-07 10:18   4.3   4.9   101  70.9  64.3  79.3
2020-08-07 10:16   5.1   5.6    93  70.7  64.1  79.3
2020-08-07 10:14   4.9   5.4    96  70.9  63.9  78.2
2020-08-07 10:12   5.1   5.8   100  70.9  64.4  79.6
2020-08-07 10:10   5.4   6.2    95  70.7  64.2  79.5
2020-08-07 10:08   5.2   5.6    91  70.9  64.0  78.6
2020-08-07 10:06   4.7   5.4    92  70.7  63.3  77.1
2020-08-07 10:04   5.1   5.6    84  70.7  63.7  78.1
2020-08-07 10:02   5.4   5.8    83  70.9  63.7  77.7
2020-08-07 10:00   5.1   6.0    83  70.9  63.7  77.6
2020-08-07 09:58   4.7   5.6    75  71.1  63.5  76.8
2020-08-07 09:56   4.5   5.6    82  70.9  63.6  77.4
2020-08-07 09:54   4.9   5.4    81  71.1  63.4  76.5
2020-08-07 09:52   5.1   5.4    77  71.2  63.5  76.2
2020-08-07 09:50   4.3   4.9    74  71.2  63.3  75.7
2020-08-07 09:48   4.3   4.5    76  71.4  62.9  74.2
2020-08-07 09:46   3.7   4.3    70  71.6  63.2  74.5
2020-08-07 09:44   3.7   4.1    69  71.6  62.8  73.5
2020-08-07 09:42   3.5   3.9    68  71.8  62.9  73.3
2020-08-07 09:40   3.1   3.7    67  71.8  62.7  72.7
2020-08-07 09:38   2.7   3.1    61  71.8  62.8  72.9
2020-08-07 09:36   2.3   2.7    58  71.8  62.9  73.3
2020-08-07 09:34   2.7   2.9    67  72.0  63.2  73.5
2020-08-07 09:32   2.1   2.7    68  72.0  63.6  74.5
2020-08-07 09:30   2.7   2.9    71  71.8  63.3  74.3
2020-08-07 09:28   2.5   3.3    72  72.0  64.0  75.6
2020-08-07 09:26   2.7   3.1    73  71.8  63.7  75.2
2020-08-07 09:24   2.5   2.7    75  71.4  63.6  76.0
2020-08-07 09:22   2.3   3.1    51  70.9  64.1  78.8
2020-08-07 09:20   2.3   2.9    39  70.5  63.5  78.0
2020-08-07 09:18   2.5   2.9    21  70.7  63.6  77.9
2020-08-07 09:16   2.3   3.1    31  70.7  63.4  77.3
2020-08-07 09:14   1.9   2.1    27  70.9  63.6  77.4
2020-08-07 09:12   1.6   1.7    25  70.9  63.0  75.9
2020-08-07 09:10   1.4   1.9    23  71.1  63.8  77.4
2020-08-07 09:08   1.2   1.4    21  71.1  63.8  77.5
2020-08-07 09:06   1.4   1.6    19  71.1  63.7  77.1
2020-08-07 09:04   0.8   1.2     6  71.2  63.5  76.2
2020-08-07 09:02   1.0   1.2     8  71.2  63.4  75.8
2020-08-07 09:00   1.0   1.6    22  71.4  63.3  75.3
2020-08-07 08:58   0.4   1.4    16  71.2  63.2  75.3
2020-08-07 08:56   0.4   1.0   318  71.1  63.5  76.6
2020-08-07 08:54   0.8   1.2   293  71.2  63.9  77.4
2020-08-07 08:52   1.0   1.4   209  71.2  63.9  77.2
2020-08-07 08:50   0.4   1.6   219  71.2  63.8  77.0
2020-08-07 08:48   0.6   1.4   200  71.1  63.8  77.5
2020-08-07 08:46   0.2   1.0   246  70.9  63.6  77.4
2020-08-07 08:44   1.4   1.9   203  70.5  63.7  78.6
2020-08-07 08:42   1.4   1.6   206  70.5  63.8  79.0
2020-08-07 08:40   1.4   1.6   196  70.5  64.0  79.4
2020-08-07 08:38   1.4   1.7   212  70.5  63.3  77.7
2020-08-07 08:36   1.2   1.6   218  70.5  63.3  77.6
2020-08-07 08:34   1.4   2.1   221  70.3  63.9  79.8
2020-08-07 08:32   1.7   2.1   223  70.2  64.0  80.6
2020-08-07 08:30   2.5   3.1   228  70.0  63.5  79.7
2020-08-07 08:28   2.7   3.3   219  70.0  63.6  80.0
2020-08-07 08:26   2.5   3.1   209  69.8  63.9  81.3
2020-08-07 08:24   3.3   4.3   212  69.6  63.8  81.5
2020-08-07 08:22   3.5   3.7   214  69.8  63.7  80.8
2020-08-07 08:20   3.9   4.3   217  69.6  63.3  80.0